createdAt,value
2022-12-25T00:01:34.661Z,101277.59
2022-12-25T00:04:03.827Z,101251.16
2022-12-25T00:06:31.635Z,101256.91
2022-12-25T00:08:59.361Z,101247.31
2022-12-25T00:11:27.123Z,101251.25
2022-12-25T00:13:54.930Z,101276.47
2022-12-25T00:16:25.040Z,101279.47
2022-12-25T00:18:53.285Z,101280.16
2022-12-25T00:21:22.669Z,101284.28
2022-12-25T00:23:55.452Z,101288.84
2022-12-25T00:26:23.683Z,101275.50
2022-12-25T00:28:54.185Z,101263.75
2022-12-25T00:31:22.822Z,101266.91
2022-12-25T00:33:51.983Z,101257.75
2022-12-25T00:36:23.385Z,101259.69
2022-12-25T00:38:51.255Z,101242.38
2022-12-25T00:41:42.015Z,101249.38
2022-12-25T00:44:12.501Z,101256.34
2022-12-25T00:46:40.878Z,101278.19
2022-12-25T00:49:08.709Z,101255.59
2022-12-25T00:51:38.131Z,101255.03
2022-12-25T00:54:06.010Z,101267.00
2022-12-25T00:56:33.801Z,101292.47
2022-12-25T00:59:01.776Z,101315.75
2022-12-25T01:01:29.620Z,101328.97
2022-12-25T01:03:57.547Z,101332.22
2022-12-25T01:06:25.297Z,101314.34
2022-12-25T01:09:11.975Z,101317.84
2022-12-25T01:11:39.751Z,101305.91
2022-12-25T01:14:07.665Z,101305.31
2022-12-25T01:16:36.079Z,101319.88
2022-12-25T01:19:04.290Z,101307.50
2022-12-25T01:21:32.245Z,101284.44
2022-12-25T01:24:01.360Z,101286.34
2022-12-25T01:26:29.545Z,101278.38
2022-12-25T01:28:57.354Z,101263.91
2022-12-25T01:31:25.609Z,101262.63
2022-12-25T01:33:53.423Z,101261.53
2022-12-25T01:36:23.360Z,101260.97
2022-12-25T01:38:52.728Z,101248.13
2022-12-25T01:41:23.924Z,101229.44
2022-12-25T01:44:04.057Z,101202.38
2022-12-25T01:46:33.189Z,101203.50
2022-12-25T01:49:05.445Z,101211.53
2022-12-25T01:51:36.756Z,101224.06
2022-12-25T01:54:08.391Z,101213.69
2022-12-25T01:56:39.854Z,101204.41
2022-12-25T01:59:09.240Z,101209.28
2022-12-25T02:01:37.257Z,101199.78
2022-12-25T02:04:10.237Z,101210.00
2022-12-25T02:06:37.975Z,101196.34
2022-12-25T02:09:05.734Z,101185.03
2022-12-25T02:11:51.003Z,101206.03
2022-12-25T02:14:20.238Z,101201.84
2022-12-25T02:16:58.265Z,101212.78
2022-12-25T02:19:38.382Z,101219.03
2022-12-25T02:22:17.315Z,101196.72
2022-12-25T02:24:59.503Z,101202.38
2022-12-25T02:28:02.305Z,101209.94
2022-12-25T02:30:36.679Z,101212.03
2022-12-25T02:33:27.827Z,101210.38
2022-12-25T02:35:57.950Z,101216.47
2022-12-25T02:38:32.711Z,101240.00
2022-12-25T02:41:06.419Z,101252.25
2022-12-25T02:43:57.169Z,101224.22
2022-12-25T02:46:44.545Z,101213.19
2022-12-25T02:49:34.470Z,101211.78
2022-12-25T02:52:23.810Z,101224.66
2022-12-25T02:55:13.187Z,101222.94
2022-12-25T02:58:03.662Z,101216.44
2022-12-25T03:00:53.733Z,101233.53
2022-12-25T03:03:43.546Z,101245.66
2022-12-25T03:06:30.066Z,101254.91
2022-12-25T03:09:21.715Z,101257.88
2022-12-25T03:11:54.460Z,101278.63
2022-12-25T03:14:39.603Z,101289.28
2022-12-25T03:17:08.776Z,101291.06
2022-12-25T03:19:54.539Z,101323.75
2022-12-25T03:22:43.713Z,101335.84
2022-12-25T03:25:29.471Z,101363.47
2022-12-25T03:27:59.004Z,101378.06
2022-12-25T03:30:54.025Z,101389.97
2022-12-25T03:33:46.171Z,101411.19
2022-12-25T03:36:20.913Z,101393.22
2022-12-25T03:39:15.737Z,101412.34
2022-12-25T03:42:07.708Z,101450.34
2022-12-25T03:45:01.176Z,101430.44
2022-12-25T03:47:51.003Z,101429.91
2022-12-25T03:50:42.408Z,101432.25
2022-12-25T03:53:32.341Z,101429.00
2022-12-25T03:56:17.957Z,101422.00
2022-12-25T03:59:09.538Z,101417.59
2022-12-25T04:01:54.993Z,101391.97
2022-12-25T04:04:40.195Z,101404.34
2022-12-25T04:07:26.678Z,101439.19
2022-12-25T04:10:11.955Z,101448.16
2022-12-25T04:13:05.857Z,101463.44
2022-12-25T04:15:51.223Z,101448.44
2022-12-25T04:18:36.329Z,101445.06
2022-12-25T04:21:22.109Z,101433.41
2022-12-25T04:24:08.773Z,101421.72
2022-12-25T04:26:54.154Z,101421.19
2022-12-25T04:29:39.616Z,101443.91
2022-12-25T04:32:24.948Z,101474.44
2022-12-25T04:35:10.288Z,101478.19
2022-12-25T04:37:38.035Z,101499.09
2022-12-25T04:40:09.245Z,101501.00
2022-12-25T04:42:36.993Z,101531.38
2022-12-25T04:45:05.215Z,101556.59
2022-12-25T04:47:33.697Z,101560.19
2022-12-25T04:50:01.487Z,101558.75
2022-12-25T04:52:29.552Z,101538.25
2022-12-25T04:54:57.291Z,101564.72
2022-12-25T04:57:26.381Z,101581.44
2022-12-25T04:59:54.151Z,101580.66
2022-12-25T05:02:22.021Z,101622.53
2022-12-25T05:04:50.098Z,101637.31
2022-12-25T05:07:17.842Z,101661.75
2022-12-25T05:09:45.608Z,101646.34
2022-12-25T05:12:13.916Z,101623.97
2022-12-25T05:14:43.017Z,101626.34
2022-12-25T05:17:10.769Z,101610.63
2022-12-25T05:19:38.503Z,101622.06
2022-12-25T05:22:06.334Z,101635.84
2022-12-25T05:24:34.240Z,101619.34
2022-12-25T05:27:01.990Z,101616.44
2022-12-25T05:29:29.691Z,101640.78
2022-12-25T05:31:58.819Z,101650.34
2022-12-25T05:34:26.563Z,101636.94
2022-12-25T05:36:54.294Z,101651.34
2022-12-25T05:39:22.070Z,101651.38
2022-12-25T05:41:49.850Z,101675.75
2022-12-25T05:44:17.904Z,101713.38
2022-12-25T05:46:45.791Z,101710.91
2022-12-25T05:49:14.999Z,101723.63
2022-12-25T05:51:42.731Z,101710.59
2022-12-25T05:54:10.498Z,101691.22
2022-12-25T05:56:38.659Z,101666.41
2022-12-25T05:59:06.583Z,101662.84
2022-12-25T06:01:34.462Z,101694.16
2022-12-25T06:04:07.017Z,101720.66
2022-12-25T06:06:39.554Z,101757.41
2022-12-25T06:09:07.347Z,101776.88
2022-12-25T06:11:35.082Z,101779.13
2022-12-25T06:14:02.839Z,101779.84
2022-12-25T06:16:37.343Z,101785.63
2022-12-25T06:19:05.953Z,101783.78
2022-12-25T06:21:33.861Z,101797.63
2022-12-25T06:24:03.235Z,101809.03
2022-12-25T06:26:31.067Z,101791.31
2022-12-25T06:28:58.806Z,101788.25
2022-12-25T06:31:26.600Z,101770.66
2022-12-25T06:33:54.575Z,101777.41
2022-12-25T06:36:24.882Z,101784.78
2022-12-25T06:38:53.452Z,101791.31
2022-12-25T06:41:24.485Z,101777.25
2022-12-25T06:43:53.982Z,101774.91
2022-12-25T06:46:23.431Z,101770.31
2022-12-25T06:48:51.579Z,101795.00
2022-12-25T06:51:20.432Z,101797.31
2022-12-25T06:53:48.418Z,101793.44
2022-12-25T06:56:18.710Z,101820.69
2022-12-25T06:58:50.301Z,101815.22
2022-12-25T07:01:21.861Z,101836.63
2022-12-25T07:03:52.480Z,101836.34
2022-12-25T07:06:20.421Z,101842.03
2022-12-25T07:08:48.632Z,101849.22
2022-12-25T07:11:18.314Z,101844.66
2022-12-25T07:13:47.602Z,101864.78
2022-12-25T07:16:16.113Z,101876.97
2022-12-25T07:18:44.249Z,101876.69
2022-12-25T07:21:14.242Z,101892.38
2022-12-25T07:23:42.781Z,101885.22
2022-12-25T07:26:11.835Z,101886.47
2022-12-25T07:28:39.960Z,101894.34
2022-12-25T07:31:11.646Z,101870.78
2022-12-25T07:33:39.835Z,101865.72
2022-12-25T07:36:12.580Z,101854.28
2022-12-25T07:38:42.314Z,101879.72
2022-12-25T07:41:10.636Z,101905.13
2022-12-25T07:43:38.635Z,101910.53
2022-12-25T07:46:07.175Z,101920.31
2022-12-25T07:48:36.831Z,101929.53
2022-12-25T07:51:06.268Z,101939.25
2022-12-25T07:53:34.619Z,101949.31
2022-12-25T07:56:04.466Z,101961.59
2022-12-25T07:58:32.762Z,101976.22
2022-12-25T08:01:04.456Z,101967.81
2022-12-25T08:03:33.007Z,101949.66
2022-12-25T08:06:05.460Z,101952.13
2022-12-25T08:08:33.494Z,101944.03
2022-12-25T08:11:01.500Z,101935.25
2022-12-25T08:13:32.008Z,101944.38
2022-12-25T08:16:00.891Z,101947.00
2022-12-25T08:18:30.167Z,101948.34
2022-12-25T08:21:02.843Z,101959.81
2022-12-25T08:23:31.984Z,101943.84
2022-12-25T08:26:05.192Z,101939.50
2022-12-25T08:28:35.191Z,101956.59
2022-12-25T08:31:07.842Z,101949.44
2022-12-25T08:33:36.337Z,101915.00
2022-12-25T08:36:04.877Z,101884.66
2022-12-25T08:38:33.987Z,101900.44
2022-12-25T08:41:01.805Z,101900.78
2022-12-25T08:43:29.758Z,101912.22
2022-12-25T08:45:57.576Z,101923.13
2022-12-25T08:48:25.379Z,101929.00
2022-12-25T08:50:54.567Z,101928.00
2022-12-25T08:53:23.116Z,101934.19
2022-12-25T08:55:58.500Z,101930.34
2022-12-25T08:58:26.782Z,101938.25
2022-12-25T09:00:54.970Z,101917.03
2022-12-25T09:03:22.867Z,101930.56
2022-12-25T09:05:50.606Z,101926.41
2022-12-25T09:08:18.481Z,101921.19
2022-12-25T09:10:46.427Z,101935.44
2022-12-25T09:13:15.524Z,101925.94
2022-12-25T09:15:43.340Z,101923.53
2022-12-25T09:18:11.103Z,101916.94
2022-12-25T09:20:38.821Z,101925.31
2022-12-25T09:23:13.248Z,101951.19
2022-12-25T09:25:41.658Z,101950.47
2022-12-25T09:28:09.400Z,101948.91
2022-12-25T09:30:38.527Z,101929.94
2022-12-25T09:33:07.035Z,101918.47
2022-12-25T09:35:34.782Z,101923.47
2022-12-25T09:38:02.499Z,101909.81
2022-12-25T09:40:32.019Z,101911.94
2022-12-25T09:43:00.949Z,101912.28
2022-12-25T09:45:33.085Z,101903.59
2022-12-25T09:48:02.184Z,101903.91
2022-12-25T09:50:41.581Z,101920.63
2022-12-25T09:53:16.337Z,101899.25
2022-12-25T09:55:49.881Z,101898.03
2022-12-25T09:58:17.610Z,101902.25
2022-12-25T10:00:52.809Z,101905.16
2022-12-25T10:03:36.214Z,101920.00
2022-12-25T10:06:12.826Z,101908.72
2022-12-25T10:08:57.787Z,101910.41
2022-12-25T10:11:42.047Z,101912.09
2022-12-25T10:14:23.095Z,101894.59
2022-12-25T10:17:03.507Z,101891.88
2022-12-25T10:19:42.428Z,101872.81
2022-12-25T10:22:15.397Z,101888.03
2022-12-25T10:24:49.134Z,101889.72
2022-12-25T10:27:20.990Z,101888.13
2022-12-25T10:29:53.778Z,101895.31
2022-12-25T10:32:22.081Z,101899.78
2022-12-25T10:34:51.751Z,101905.03
2022-12-25T10:37:19.753Z,101907.69
2022-12-25T10:39:47.484Z,101919.41
2022-12-25T10:42:29.488Z,101944.88
2022-12-25T10:44:58.975Z,101930.59
2022-12-25T10:47:30.762Z,101916.59
2022-12-25T10:50:02.460Z,101925.25
2022-12-25T10:52:30.654Z,101929.47
2022-12-25T10:54:58.428Z,101924.91
2022-12-25T10:57:29.780Z,101918.94
2022-12-25T10:59:58.310Z,101922.19
2022-12-25T11:02:28.683Z,101921.13
2022-12-25T11:05:03.620Z,101917.81
2022-12-25T11:07:33.137Z,101906.31
2022-12-25T11:10:05.834Z,101900.84
2022-12-25T11:12:37.159Z,101900.75
2022-12-25T11:15:08.658Z,101910.03
2022-12-25T11:17:36.997Z,101905.22
2022-12-25T11:20:20.140Z,101894.56
2022-12-25T11:22:50.338Z,101879.38
2022-12-25T11:25:23.734Z,101866.91
2022-12-25T11:27:58.338Z,101874.66
2022-12-25T11:30:26.242Z,101865.41
2022-12-25T11:32:56.237Z,101864.22
2022-12-25T11:35:31.836Z,101846.19
2022-12-25T11:37:59.783Z,101835.97
2022-12-25T11:40:30.676Z,101825.66
2022-12-25T11:43:08.044Z,101827.84
2022-12-25T11:45:39.550Z,101821.72
2022-12-25T11:48:12.149Z,101808.69
2022-12-25T11:50:43.886Z,101790.59
2022-12-25T11:53:18.920Z,101800.28
2022-12-25T11:55:54.759Z,101789.84
2022-12-25T11:58:25.981Z,101783.72
2022-12-25T12:00:57.419Z,101754.38
2022-12-25T12:03:30.339Z,101739.09
2022-12-25T12:06:03.772Z,101721.84
2022-12-25T12:08:34.309Z,101726.94
2022-12-25T12:11:19.539Z,101708.16
2022-12-25T12:14:16.026Z,101681.03
2022-12-25T12:16:43.946Z,101667.03
2022-12-25T12:19:13.679Z,101668.22
2022-12-25T12:21:44.183Z,101659.56
2022-12-25T12:24:17.080Z,101644.75
2022-12-25T12:26:47.210Z,101646.44
2022-12-25T12:29:26.117Z,101642.28
2022-12-25T12:31:57.176Z,101621.50
2022-12-25T12:34:28.631Z,101610.28
2022-12-25T12:37:02.988Z,101622.13
2022-12-25T12:39:35.747Z,101614.13
2022-12-25T12:42:03.810Z,101622.41
2022-12-25T12:44:34.860Z,101620.41
2022-12-25T12:47:02.649Z,101622.34
2022-12-25T12:49:33.593Z,101641.94
2022-12-25T12:52:08.078Z,101634.09
2022-12-25T12:54:56.022Z,101620.44
2022-12-25T12:57:26.884Z,101605.97
2022-12-25T12:59:54.659Z,101587.31
2022-12-25T13:02:48.138Z,101582.47
2022-12-25T13:05:27.667Z,101584.16
2022-12-25T13:08:11.433Z,101561.78
2022-12-25T13:10:42.531Z,101567.19
2022-12-25T13:13:18.562Z,101570.09
2022-12-25T13:15:49.044Z,101573.97
2022-12-25T13:18:17.209Z,101573.19
2022-12-25T13:20:49.561Z,101564.84
2022-12-25T13:23:27.077Z,101573.09
2022-12-25T13:25:55.873Z,101560.47
2022-12-25T13:28:31.667Z,101564.53
2022-12-25T13:31:08.287Z,101559.09
2022-12-25T13:33:36.162Z,101543.56
2022-12-25T13:36:04.841Z,101537.66
2022-12-25T13:38:34.029Z,101534.94
2022-12-25T13:41:19.125Z,101527.97
2022-12-25T13:43:48.710Z,101507.41
2022-12-25T13:46:17.358Z,101502.44
2022-12-25T13:48:45.147Z,101510.88
2022-12-25T13:51:16.991Z,101484.31
2022-12-25T13:53:46.129Z,101497.75
2022-12-25T13:56:16.070Z,101483.78
2022-12-25T13:58:46.524Z,101484.75
2022-12-25T14:01:18.530Z,101467.84
2022-12-25T14:03:48.210Z,101474.22
2022-12-25T14:06:20.484Z,101457.75
2022-12-25T14:08:50.798Z,101464.19
2022-12-25T14:11:21.594Z,101472.66
2022-12-25T14:13:51.989Z,101470.50
2022-12-25T14:16:21.688Z,101478.28
2022-12-25T14:18:53.652Z,101482.72
2022-12-25T14:21:28.693Z,101470.59
2022-12-25T14:23:58.081Z,101476.88
2022-12-25T14:26:28.732Z,101447.03
2022-12-25T14:29:03.489Z,101452.31
2022-12-25T14:31:32.619Z,101419.75
2022-12-25T14:34:02.453Z,101414.16
2022-12-25T14:36:31.727Z,101425.44
2022-12-25T14:39:02.381Z,101414.81
2022-12-25T14:41:34.887Z,101442.75
2022-12-25T14:44:06.714Z,101436.94
2022-12-25T14:46:35.657Z,101425.16
2022-12-25T14:49:05.595Z,101453.00
2022-12-25T14:51:35.338Z,101451.16
2022-12-25T14:54:06.390Z,101455.72
2022-12-25T14:56:38.515Z,101452.91
2022-12-25T14:59:07.699Z,101461.09
2022-12-25T15:01:38.013Z,101465.31
2022-12-25T15:04:12.548Z,101442.66
2022-12-25T15:06:42.693Z,101431.41
2022-12-25T15:09:19.032Z,101440.84
2022-12-25T15:11:49.217Z,101430.94
2022-12-25T15:14:16.929Z,101408.53
2022-12-25T15:16:48.135Z,101420.38
2022-12-25T15:19:25.253Z,101397.81
2022-12-25T15:21:54.374Z,101409.72
2022-12-25T15:24:23.475Z,101400.72
2022-12-25T15:26:53.203Z,101401.16
2022-12-25T15:29:38.453Z,101398.03
2022-12-25T15:32:16.150Z,101400.00
2022-12-25T15:34:46.186Z,101395.91
2022-12-25T15:37:14.430Z,101399.50
2022-12-25T15:39:43.604Z,101396.69
2022-12-25T15:42:13.676Z,101392.34
2022-12-25T15:44:41.557Z,101413.31
2022-12-25T15:47:10.681Z,101402.41
2022-12-25T15:49:39.238Z,101395.13
2022-12-25T15:52:09.594Z,101424.59
2022-12-25T15:54:37.310Z,101436.88
2022-12-25T15:57:11.036Z,101462.63
2022-12-25T15:59:38.773Z,101457.00
2022-12-25T16:02:15.680Z,101457.66
2022-12-25T16:04:43.628Z,101460.03
2022-12-25T16:07:15.775Z,101458.09
2022-12-25T16:09:43.665Z,101461.81
2022-12-25T16:12:12.910Z,101469.66
2022-12-25T16:14:40.620Z,101483.09
2022-12-25T16:17:09.168Z,101493.97
2022-12-25T16:19:36.872Z,101488.94
2022-12-25T16:22:12.871Z,101511.47
2022-12-25T16:24:40.620Z,101515.16
2022-12-25T16:27:08.384Z,101517.16
2022-12-25T16:29:37.497Z,101512.78
2022-12-25T16:32:05.687Z,101521.56
2022-12-25T16:34:33.410Z,101522.09
2022-12-25T16:37:01.151Z,101520.22
2022-12-25T16:39:29.055Z,101513.47
2022-12-25T16:41:56.795Z,101514.72
2022-12-25T16:44:24.906Z,101508.09
2022-12-25T16:46:54.070Z,101515.22
2022-12-25T16:49:21.848Z,101518.50
2022-12-25T16:51:49.592Z,101525.88
2022-12-25T16:54:17.335Z,101514.16
2022-12-25T16:56:45.060Z,101511.69
2022-12-25T16:59:13.041Z,101509.19
2022-12-25T17:01:43.281Z,101505.91
2022-12-25T17:04:12.838Z,101494.34
2022-12-25T17:06:40.976Z,101497.19
2022-12-25T17:09:08.710Z,101498.75
2022-12-25T17:11:36.431Z,101496.59
2022-12-25T17:14:06.694Z,101484.22
2022-12-25T17:16:35.992Z,101478.50
2022-12-25T17:19:05.530Z,101467.63
2022-12-25T17:21:38.319Z,101457.97
2022-12-25T17:24:07.871Z,101454.16
2022-12-25T17:26:35.606Z,101451.09
2022-12-25T17:29:03.661Z,101432.00
2022-12-25T17:31:31.515Z,101427.19
2022-12-25T17:34:01.371Z,101415.28
2022-12-25T17:36:31.063Z,101407.78
2022-12-25T17:39:01.754Z,101413.47
2022-12-25T17:41:29.704Z,101412.19
2022-12-25T17:43:57.541Z,101411.25
2022-12-25T17:46:28.045Z,101393.19
2022-12-25T17:48:57.740Z,101383.59
2022-12-25T17:51:27.682Z,101378.88
2022-12-25T17:53:57.229Z,101365.00
2022-12-25T17:56:26.614Z,101345.28
2022-12-25T17:58:56.959Z,101363.72
2022-12-25T18:01:27.180Z,101372.59
2022-12-25T18:03:55.862Z,101362.00
2022-12-25T18:06:25.639Z,101352.81
2022-12-25T18:08:55.410Z,101374.97
2022-12-25T18:11:27.576Z,101373.63
2022-12-25T18:13:58.224Z,101366.06
2022-12-25T18:16:27.882Z,101357.72
2022-12-25T18:18:55.597Z,101341.09
2022-12-25T18:21:24.135Z,101356.31
2022-12-25T18:23:52.198Z,101362.88
2022-12-25T18:26:21.635Z,101360.78
2022-12-25T18:28:50.092Z,101347.84
2022-12-25T18:31:22.811Z,101337.78
2022-12-25T18:33:51.477Z,101340.69
2022-12-25T18:36:26.832Z,101344.53
2022-12-25T18:38:56.431Z,101351.59
2022-12-25T18:41:24.914Z,101346.28
2022-12-25T18:43:55.536Z,101330.75
2022-12-25T18:46:27.339Z,101324.44
2022-12-25T18:48:56.003Z,101336.50
2022-12-25T18:51:24.416Z,101331.50
2022-12-25T18:53:52.316Z,101314.53
2022-12-25T18:56:20.062Z,101316.72
2022-12-25T18:58:48.677Z,101309.47
2022-12-25T19:01:18.609Z,101298.53
2022-12-25T19:03:49.245Z,101299.72
2022-12-25T19:06:21.537Z,101299.25
2022-12-25T19:08:49.705Z,101285.50
2022-12-25T19:11:18.532Z,101281.25
2022-12-25T19:13:46.681Z,101266.50
2022-12-25T19:16:15.225Z,101269.53
2022-12-25T19:18:43.688Z,101282.75
2022-12-25T19:21:12.920Z,101288.00
2022-12-25T19:23:41.880Z,101281.78
2022-12-25T19:26:11.775Z,101278.13
2022-12-25T19:28:42.743Z,101268.72
2022-12-25T19:31:11.803Z,101264.78
2022-12-25T19:33:40.913Z,101266.13
2022-12-25T19:36:11.581Z,101264.72
2022-12-25T19:38:40.771Z,101255.47
2022-12-25T19:41:09.600Z,101249.63
2022-12-25T19:43:39.074Z,101247.56
2022-12-25T19:46:08.621Z,101243.72
2022-12-25T19:48:36.453Z,101249.50
2022-12-25T19:51:04.285Z,101232.53
2022-12-25T19:53:32.448Z,101221.25
2022-12-25T19:56:03.938Z,101206.69
2022-12-25T19:58:31.727Z,101201.28
2022-12-25T20:01:00.606Z,101196.59
2022-12-25T20:03:28.608Z,101189.88
2022-12-25T20:05:56.582Z,101188.56
2022-12-25T20:08:24.367Z,101166.75
2022-12-25T20:10:52.751Z,101155.94
2022-12-25T20:13:22.106Z,101156.84
2022-12-25T20:15:50.233Z,101154.19
2022-12-25T20:18:18.841Z,101147.59
2022-12-25T20:20:46.660Z,101152.94
2022-12-25T20:23:14.429Z,101149.00
2022-12-25T20:25:43.160Z,101129.47
2022-12-25T20:28:11.065Z,101134.41
2022-12-25T20:30:41.388Z,101124.00
2022-12-25T20:33:10.073Z,101125.75
2022-12-25T20:35:37.920Z,101114.81
2022-12-25T20:38:05.653Z,101119.88
2022-12-25T20:40:52.866Z,101127.56
2022-12-25T20:43:21.070Z,101123.25
2022-12-25T20:45:52.576Z,101112.66
2022-12-25T20:48:20.374Z,101093.50
2022-12-25T20:50:48.094Z,101072.25
2022-12-25T20:53:16.333Z,101060.16
2022-12-25T20:55:46.527Z,101075.88
2022-12-25T20:58:14.566Z,101070.34
2022-12-25T21:00:43.032Z,101054.50
2022-12-25T21:03:12.696Z,101043.25
2022-12-25T21:05:49.820Z,101014.63
2022-12-25T21:08:18.029Z,101012.94
2022-12-25T21:10:50.295Z,101021.28
2022-12-25T21:13:18.295Z,101027.19
2022-12-25T21:15:46.594Z,101037.75
2022-12-25T21:18:16.106Z,101023.97
2022-12-25T21:20:45.768Z,100998.06
2022-12-25T21:23:13.532Z,101003.81
2022-12-25T21:25:41.313Z,101018.56
2022-12-25T21:28:09.145Z,101045.91
2022-12-25T21:30:37.066Z,101047.78
2022-12-25T21:33:22.561Z,101039.09
2022-12-25T21:35:51.698Z,101033.69
2022-12-25T21:38:19.417Z,101029.47
2022-12-25T21:40:47.247Z,101028.59
2022-12-25T21:43:15.692Z,101031.84
2022-12-25T21:45:43.568Z,101022.84
2022-12-25T21:48:11.396Z,101021.44
2022-12-25T21:50:56.760Z,101005.25
2022-12-25T21:53:25.863Z,101016.03
2022-12-25T21:55:58.404Z,101008.25
2022-12-25T21:58:26.225Z,101010.19
2022-12-25T22:00:53.986Z,101004.44
2022-12-25T22:03:22.028Z,100983.69
2022-12-25T22:06:07.103Z,100987.03
2022-12-25T22:08:36.160Z,101018.44
2022-12-25T22:11:05.024Z,101050.41
2022-12-25T22:13:50.418Z,101034.16
2022-12-25T22:16:35.776Z,101032.84
2022-12-25T22:19:20.979Z,101029.81
2022-12-25T22:21:48.701Z,101035.59
2022-12-25T22:24:17.790Z,101031.97
2022-12-25T22:26:46.090Z,101014.25
2022-12-25T22:29:13.798Z,101008.84
2022-12-25T22:31:46.671Z,101004.91
2022-12-25T22:34:16.336Z,101003.22
2022-12-25T22:36:44.134Z,100990.28
2022-12-25T22:39:11.939Z,100991.34
2022-12-25T22:41:41.030Z,100998.06
2022-12-25T22:44:17.798Z,100978.19
2022-12-25T22:46:46.400Z,100955.78
2022-12-25T22:49:15.482Z,100963.63
2022-12-25T22:51:43.397Z,100924.06
2022-12-25T22:54:13.072Z,100893.91
2022-12-25T22:56:42.272Z,100856.53
2022-12-25T22:59:10.695Z,100819.03
2022-12-25T23:01:38.541Z,100790.47
2022-12-25T23:04:07.293Z,100780.41
2022-12-25T23:06:35.552Z,100732.59
2022-12-25T23:09:04.428Z,100735.50
2022-12-25T23:11:32.325Z,100742.69
2022-12-25T23:14:33.296Z,100738.00
2022-12-25T23:17:01.361Z,100715.75
2022-12-25T23:19:46.790Z,100749.66
2022-12-25T23:22:32.201Z,100713.25
2022-12-25T23:25:17.980Z,100693.09
2022-12-25T23:27:46.532Z,100690.50
2022-12-25T23:30:16.366Z,100691.53
2022-12-25T23:32:45.077Z,100696.59
2022-12-25T23:35:14.338Z,100712.22
2022-12-25T23:37:42.145Z,100732.09
2022-12-25T23:40:11.088Z,100744.94
2022-12-25T23:42:38.850Z,100756.56
2022-12-25T23:45:07.464Z,100756.97
2022-12-25T23:47:36.558Z,100755.94
2022-12-25T23:50:04.500Z,100762.47
2022-12-25T23:52:32.267Z,100750.13
2022-12-25T23:55:00.009Z,100764.72
2022-12-25T23:57:27.885Z,100781.78
2022-12-25T23:59:55.631Z,100771.16
